Crosby, ND

6:32 AM CST on November 20, 2019 (GMT -0600)
Crosby

Weather History for KD50 - September, 2019

Change the Weather History Date:

Wednesday, September 4, 2019

  Actual Average (KISN) Record (KISN)
Temperature  
Mean Temperature 66 °F -  
Max Temperature 82 °F 77 °F 101 °F (1998)
Min Temperature 50 °F 49 °F 33 °F (1956)
Cooling Degree Days 1    
Growing Degree Days 16 (Base 50)    
Moisture  
Dew Point 53 °F    
Average Humidity 73    
Maximum Humidity 100    
Minimum Humidity 32    
Precipitation  
Precipitation 0.00 in - - ()
Sea Level Pressure  
Sea Level Pressure 29.93 in    
Wind  
Wind Speed 10 mph (South)    
Max Wind Speed 23 mph    
Max Gust Speed 30 mph    
Visibility 10 miles    
Events      
Averages and records for this station are not official NWS values.
T = Trace of Precipitation, MM = Missing Value Source: NWS Daily Summary

Daily Weather History Graph

Daily Weather History Graph

Search for Another Location

Airport or City:

Astronomy

Sep. 04, 2019 Rise Set
Actual Time 7:13 AM CDT 8:29 PM CDT
Civil Twilight 6:41 AM CDT 9:02 PM CDT
Nautical Twilight 6:01 AM CDT 9:41 PM CDT
Astronomical Twilight 5:19 AM CDT 10:23 PM CDT
Moon 1:48 PM CDT (9/4) 11:33 PM CDT (9/4)
Length of Visible Light 14h 20m
Length of Day
13h 15m
Waxing Crescent, 35% of the Moon is Illuminated
Sep 4
Waxing Crescent
Sep 5
First Quarter
Sep 13
Full
Sep 21
Last Quarter
Sep 28
New

Hourly Weather History & Observations

Time (CDT) Temp. Heat Index Dew Point Humidity Pressure Visibility Wind Dir Wind Speed Gust Speed Precip Events Conditions
12:15 AM 50.0 °F - 50.0 °F 100% 30.10 in 10.0 mi SSW 8.1 mph - N/A   Clear
12:35 AM 50.0 °F - 50.0 °F 100% 30.10 in 10.0 mi SSW 8.1 mph - N/A   Clear
12:55 AM 50.0 °F - 50.0 °F 100% 30.09 in 10.0 mi SSW 8.1 mph - N/A   Clear
1:15 AM 50.0 °F - 50.0 °F 100% 30.09 in 10.0 mi SSW 8.1 mph - N/A   Partly Cloudy
1:35 AM 50.0 °F - 50.0 °F 100% 30.09 in 10.0 mi SSW 6.9 mph - N/A   Partly Cloudy
1:55 AM 50.0 °F - 50.0 °F 100% 30.09 in 10.0 mi SSW 6.9 mph - N/A   Clear
2:15 AM 50.0 °F - 50.0 °F 100% 30.08 in 10.0 mi SSW 6.9 mph - N/A   Partly Cloudy
2:35 AM 50.0 °F - 50.0 °F 100% 30.08 in 10.0 mi SSW 8.1 mph - N/A   Scattered Clouds
2:55 AM 50.0 °F - 50.0 °F 100% 30.08 in 10.0 mi SSW 9.2 mph - N/A   Mostly Cloudy
3:15 AM 50.0 °F - 50.0 °F 100% 30.08 in 10.0 mi South 8.1 mph - N/A   Mostly Cloudy
3:35 AM 50.0 °F - 50.0 °F 100% 30.07 in 10.0 mi South 8.1 mph - N/A   Mostly Cloudy
3:55 AM 50.0 °F - 50.0 °F 100% 30.07 in 10.0 mi SSW 10.4 mph - N/A   Mostly Cloudy
4:15 AM 50.0 °F - 50.0 °F 100% 30.06 in 10.0 mi SSW 8.1 mph - N/A   Mostly Cloudy
4:35 AM 50.0 °F - 50.0 °F 100% 30.06 in 10.0 mi SSW 9.2 mph - N/A   Mostly Cloudy
4:55 AM 50.0 °F - 50.0 °F 100% 30.06 in 10.0 mi SSW 11.5 mph - N/A   Mostly Cloudy
5:15 AM 51.8 °F - 51.8 °F 100% 30.06 in 10.0 mi South 11.5 mph - N/A   Mostly Cloudy
5:35 AM 51.8 °F - 51.8 °F 100% 30.05 in 10.0 mi South 10.4 mph - N/A   Scattered Clouds
5:55 AM 50.0 °F - 50.0 °F 100% 30.04 in 10.0 mi South 8.1 mph - N/A   Scattered Clouds
6:15 AM 50.0 °F - 50.0 °F 100% 30.04 in 10.0 mi South 10.4 mph - N/A   Partly Cloudy
6:35 AM 50.0 °F - 50.0 °F 100% 30.04 in 10.0 mi SSW 10.4 mph - N/A   Partly Cloudy
6:55 AM 50.0 °F - 50.0 °F 100% 30.04 in 10.0 mi South 11.5 mph - N/A   Clear
7:15 AM 50.0 °F - 50.0 °F 100% 30.03 in 10.0 mi South 10.4 mph - N/A   Clear
7:35 AM 51.8 °F - 51.8 °F 100% 30.02 in 10.0 mi South 10.4 mph - N/A   Clear
7:55 AM 51.8 °F - 51.8 °F 100% 30.02 in 10.0 mi South 8.1 mph - N/A   Clear
8:15 AM 51.8 °F - 51.8 °F 100% 30.02 in 10.0 mi South 9.2 mph - N/A   Clear
8:35 AM 53.6 °F - 53.6 °F 100% 30.01 in 10.0 mi South 6.9 mph - N/A   Clear
8:55 AM 55.4 °F - 53.6 °F 94% 30.00 in 10.0 mi South 8.1 mph - N/A   Clear
9:15 AM 57.2 °F - 53.6 °F 88% 29.99 in 10.0 mi South 8.1 mph - N/A   Clear
9:35 AM 60.8 °F - 53.6 °F 77% 29.99 in 10.0 mi South 9.2 mph - N/A   Clear
9:55 AM 62.6 °F - 55.4 °F 77% 29.99 in 10.0 mi South 9.2 mph - N/A   Clear
10:15 AM 62.6 °F - 53.6 °F 72% 29.98 in 10.0 mi South 10.4 mph - N/A   Clear
10:35 AM 68.0 °F - 51.8 °F 56% 29.98 in 10.0 mi South 11.5 mph - N/A   Clear
10:55 AM 69.8 °F - 51.8 °F 53% 29.98 in 10.0 mi South 12.7 mph 19.6 mph N/A   Clear
11:15 AM 69.8 °F - 50.0 °F 49% 29.98 in 10.0 mi South 10.4 mph - N/A   Clear
11:35 AM 69.8 °F - 51.8 °F 53% 29.99 in 10.0 mi SSW 10.4 mph - N/A   Clear
11:55 AM 69.8 °F - 50.0 °F 49% 29.98 in 10.0 mi South 10.4 mph - N/A   Clear
12:15 PM 69.8 °F - 50.0 °F 49% 29.97 in 10.0 mi South 8.1 mph 13.8 mph N/A   Clear
12:35 PM 69.8 °F - 51.8 °F 53% 29.94 in 10.0 mi SSE 10.4 mph - N/A   Partly Cloudy
12:55 PM 71.6 °F - 51.8 °F 50% 29.93 in 10.0 mi SSE 13.8 mph - N/A   Clear
1:15 PM 73.4 °F - 50.0 °F 44% 29.94 in 10.0 mi SSE 15.0 mph 20.7 mph N/A   Clear
1:35 PM 75.2 °F - 50.0 °F 41% 29.92 in 10.0 mi SSE 15.0 mph 23.0 mph N/A   Clear
1:55 PM 77.0 °F - 50.0 °F 39% 29.90 in 10.0 mi SE 17.3 mph - N/A   Clear
2:15 PM 80.6 °F - 48.2 °F 32% 29.87 in 10.0 mi SSE 21.9 mph 28.8 mph N/A   Clear
2:35 PM 80.6 °F - 50.0 °F 34% 29.86 in 10.0 mi SSE 21.9 mph 28.8 mph N/A   Clear
2:55 PM 82.4 °F - 51.8 °F 35% 29.85 in 10.0 mi SSE 19.6 mph 27.6 mph N/A   Clear
3:15 PM 80.6 °F - 51.8 °F 37% 29.84 in 10.0 mi SSE 20.7 mph - N/A   Clear
3:35 PM 82.4 °F - 51.8 °F 35% 29.84 in 10.0 mi South 20.7 mph - N/A   Clear
3:55 PM 80.6 °F 80.3 °F 53.6 °F 39% 29.83 in 10.0 mi South 18.4 mph 26.5 mph N/A   Clear
4:15 PM 80.6 °F 80.3 °F 53.6 °F 39% 29.82 in 10.0 mi South 19.6 mph - N/A   Clear
4:35 PM 78.8 °F - 53.6 °F 42% 29.80 in 10.0 mi SSE 23.0 mph - N/A   Clear
4:55 PM 82.4 °F 81.4 °F 53.6 °F 37% 29.79 in 10.0 mi SSE 21.9 mph - N/A   Clear
5:15 PM 80.6 °F 80.3 °F 53.6 °F 39% 29.79 in 10.0 mi South 21.9 mph 28.8 mph N/A   Clear
5:35 PM 80.6 °F 80.3 °F 53.6 °F 39% 29.78 in 10.0 mi South 23.0 mph 29.9 mph N/A   Clear
5:55 PM 80.6 °F 80.3 °F 53.6 °F 39% 29.78 in 10.0 mi South 21.9 mph - N/A   Clear
6:15 PM 80.6 °F 80.3 °F 53.6 °F 39% 29.79 in 10.0 mi South 16.1 mph 21.9 mph N/A   Clear
6:35 PM 80.6 °F 80.5 °F 55.4 °F 42% 29.80 in 10.0 mi South 11.5 mph 18.4 mph N/A   Clear
6:55 PM 80.6 °F 80.5 °F 55.4 °F 42% 29.80 in 10.0 mi SSE 11.5 mph - N/A   Clear
7:15 PM 78.8 °F - 57.2 °F 47% 29.79 in 10.0 mi SSE 8.1 mph - N/A   Clear
7:35 PM 78.8 °F - 57.2 °F 47% 29.78 in 10.0 mi SSE 6.9 mph - N/A   Clear
7:55 PM 75.2 °F - 59.0 °F 57% 29.78 in 10.0 mi SE 5.8 mph - N/A   Clear
8:15 PM 71.6 °F - 59.0 °F 64% 29.78 in 9.0 mi ESE 6.9 mph - N/A   Clear
8:55 PM 68.0 °F - 59.0 °F 73% 29.78 in 10.0 mi SE 6.9 mph - N/A   Clear
9:15 PM 66.2 °F - 59.0 °F 78% 29.78 in 10.0 mi SE 4.6 mph - N/A   Clear
9:35 PM 64.4 °F - 59.0 °F 83% 29.79 in 10.0 mi Calm Calm - N/A   Clear
9:55 PM 62.6 °F - 60.8 °F 94% 29.79 in 10.0 mi SW 8.1 mph - N/A   Clear
10:15 PM 62.6 °F - 59.0 °F 88% 29.79 in 10.0 mi West 8.1 mph - N/A   Clear
10:35 PM 62.6 °F - 57.2 °F 82% 29.79 in 10.0 mi West 8.1 mph - N/A   Partly Cloudy
10:55 PM 62.6 °F - 57.2 °F 82% 29.80 in 10.0 mi West 10.4 mph - N/A   Partly Cloudy
11:15 PM 64.4 °F - 59.0 °F 83% 29.81 in 10.0 mi West 11.5 mph - N/A   Partly Cloudy
11:35 PM 62.6 °F - 59.0 °F 88% 29.81 in 10.0 mi West 9.2 mph - N/A   Partly Cloudy
11:55 PM 62.6 °F - 59.0 °F 88% 29.82 in 10.0 mi West 8.1 mph - N/A   Clear